Bendorf, Germany

11:42 PM CEST die 31o August, anno 2016 (GMT +0200)
Grenzhäuser Str | | Change Station

Elev 315 ft 50.42 °N, 7.58 °E | Updated 20 seconds ago

Clear
Serena
66.6 °F
Feels Like 66.6 °F
N
0.0
Ventus Variabilis Ventus from Inter Aquilonem et Eurum
Gusts 0.0 mph

Hodie
High -- | Low -- °F
--% Chance of Precip.
Yesterday
High -- | Low -- °F
Precip. -- in
Pressio 30.18 in
Visibilitas -9999.0 milia passuum
Clouds
Frigus in quo Ros apparet 57 °F
Umor 72%
Rainfall 0.00 in
Snow Depth Not available.
6:42 AM 8:15 PM
Waning Crescent, 0% visible
METAR EDFH 312120Z 32004KT CAVOK 20/13 Q1022
Pressio 30.18 in
Visibilitas -9999.0 milia passuum
Clouds
Frigus in quo Ros apparet 57 °F
Umor 72%
Rainfall 0.00 in
Snow Depth Not available.
6:42 AM 8:15 PM
Waning Crescent, 0% visible
METAR EDFH 312120Z 32004KT CAVOK 20/13 Q1022

10-Day Weather Forecast

×

Almanac

Astronomy

Aug. 31, 2016 Rise Set
Actual Time
Civil Twilight
Nautical Twilight
Astronomical Twilight
Moon
Length Of Visible Light
Length of Day
Tomorrow will be .
, % of the Moon is Illuminated

Today's Extremes

Country Highs Country Lows

Community

WunderPhotos

Upload Photos

1,936,189 photos uploaded!

WunderBlog® & News

Nearby

Air Quality

  Air Quality AQ Index Pollutant
Not available.

Snow Depth

Station Depth Elevation

Earthquake Activity

City Distance Mag. Time & Date
Minimum magnitude displayed is 2.5.

Coastal Water Temperatures

Locus Calor

Stations

Nearby Weather Stations

Station Location Temp Frigus Venti Frigus in quo Ros apparet Umor Ventus Precip. Elev Renovata Type